createdAt,value
2018-05-24T00:00:55.885Z,16.30
2018-05-24T00:03:23.342Z,16.40
2018-05-24T00:05:50.795Z,16.40
2018-05-24T00:08:18.252Z,16.40
2018-05-24T00:10:45.711Z,16.40
2018-05-24T00:13:13.175Z,16.30
2018-05-24T00:15:40.624Z,16.30
2018-05-24T00:18:08.079Z,16.40
2018-05-24T00:20:35.540Z,16.40
2018-05-24T00:23:02.988Z,16.40
2018-05-24T00:25:33.607Z,16.50
2018-05-24T00:28:01.055Z,16.50
2018-05-24T00:30:29.283Z,16.50
2018-05-24T00:32:56.735Z,16.50
2018-05-24T00:35:24.205Z,16.50
2018-05-24T00:37:51.641Z,16.50
2018-05-24T00:40:19.081Z,16.50
2018-05-24T00:42:46.540Z,16.60
2018-05-24T00:45:13.998Z,16.50
2018-05-24T00:47:41.465Z,16.50
2018-05-24T00:50:08.915Z,16.60
2018-05-24T00:52:36.379Z,16.60
2018-05-24T00:55:15.807Z,16.60
2018-05-24T00:57:43.276Z,16.70
2018-05-24T01:00:10.760Z,16.70
2018-05-24T01:02:38.299Z,16.70
2018-05-24T01:05:05.834Z,16.60
2018-05-24T01:07:33.223Z,16.70
2018-05-24T01:10:00.676Z,16.70
2018-05-24T01:12:28.139Z,16.60
2018-05-24T01:14:55.601Z,16.60
2018-05-24T01:17:23.064Z,16.60
2018-05-24T01:19:50.538Z,16.60
2018-05-24T01:22:18.002Z,16.50
2018-05-24T01:24:45.444Z,16.50
2018-05-24T01:27:12.940Z,16.50
2018-05-24T01:29:40.393Z,16.40
2018-05-24T01:32:07.856Z,16.50
2018-05-24T01:34:35.308Z,16.40
2018-05-24T01:37:14.560Z,16.40
2018-05-24T01:39:42.792Z,16.40
2018-05-24T01:42:10.260Z,16.40
2018-05-24T01:44:37.721Z,16.40
2018-05-24T01:47:05.197Z,16.40
2018-05-24T01:49:32.645Z,16.40
2018-05-24T01:52:00.112Z,16.40
2018-05-24T01:54:27.564Z,16.30
2018-05-24T01:56:55.024Z,16.30
2018-05-24T01:59:22.479Z,16.30
2018-05-24T02:01:49.940Z,16.30
2018-05-24T02:04:17.396Z,16.30
2018-05-24T02:06:44.856Z,16.40
2018-05-24T02:09:12.372Z,16.40
2018-05-24T02:11:39.836Z,16.40
2018-05-24T02:14:07.289Z,16.40
2018-05-24T02:16:34.759Z,16.40
2018-05-24T02:19:02.216Z,16.40
2018-05-24T02:21:29.697Z,16.40
2018-05-24T02:23:57.157Z,16.30
2018-05-24T02:26:24.646Z,16.20
2018-05-24T02:28:52.864Z,16.00
2018-05-24T02:31:20.726Z,16.00
2018-05-24T02:33:48.179Z,15.90
2018-05-24T02:36:15.637Z,15.90
2018-05-24T02:38:43.588Z,16.00
2018-05-24T02:41:11.812Z,16.00
2018-05-24T02:43:40.036Z,16.00
2018-05-24T02:46:08.263Z,16.00
2018-05-24T02:48:35.716Z,16.00
2018-05-24T02:51:03.177Z,16.00
2018-05-24T02:53:30.636Z,15.90
2018-05-24T02:55:58.102Z,15.90
2018-05-24T02:58:25.573Z,15.80
2018-05-24T03:00:53.032Z,15.70
2018-05-24T03:03:20.498Z,15.60
2018-05-24T03:05:47.965Z,15.60
2018-05-24T03:08:16.199Z,15.70
2018-05-24T03:10:43.667Z,15.70
2018-05-24T03:13:11.128Z,15.70
2018-05-24T03:15:38.587Z,15.60
2018-05-24T03:18:06.054Z,15.60
2018-05-24T03:20:33.508Z,15.60
2018-05-24T03:23:00.972Z,15.60
2018-05-24T03:25:28.424Z,15.60
2018-05-24T03:27:56.154Z,15.60
2018-05-24T03:30:23.629Z,15.60
2018-05-24T03:32:51.093Z,15.60
2018-05-24T03:35:18.572Z,15.60
2018-05-24T03:37:46.021Z,15.60
2018-05-24T03:40:13.475Z,15.60
2018-05-24T03:42:40.950Z,15.60
2018-05-24T03:45:08.404Z,15.60
2018-05-24T03:47:35.878Z,15.60
2018-05-24T03:50:04.117Z,15.50
2018-05-24T03:52:31.580Z,15.50
2018-05-24T03:54:59.048Z,15.50
2018-05-24T03:57:26.507Z,15.40
2018-05-24T04:00:06.561Z,15.50
2018-05-24T04:02:45.852Z,15.50
2018-05-24T04:05:13.305Z,15.60
2018-05-24T04:07:40.775Z,15.60
2018-05-24T04:10:08.246Z,15.50
2018-05-24T04:12:35.706Z,15.50
2018-05-24T04:15:03.255Z,15.60
2018-05-24T04:17:30.708Z,15.60
2018-05-24T04:19:58.163Z,15.70
2018-05-24T04:22:25.635Z,15.70
2018-05-24T04:24:53.093Z,15.80
2018-05-24T04:27:20.551Z,15.70
2018-05-24T04:29:48.004Z,15.80
2018-05-24T04:32:15.484Z,15.90
2018-05-24T04:34:42.943Z,15.90
2018-05-24T04:37:10.400Z,15.90
2018-05-24T04:39:37.861Z,15.90
2018-05-24T04:42:05.328Z,16.00
2018-05-24T04:44:32.788Z,16.00
2018-05-24T04:47:00.245Z,16.00
2018-05-24T04:49:27.708Z,16.00
2018-05-24T04:51:55.169Z,16.00
2018-05-24T04:54:22.636Z,16.10
2018-05-24T04:56:50.099Z,16.10
2018-05-24T04:59:17.585Z,16.10
2018-05-24T05:01:45.075Z,16.20
2018-05-24T05:04:12.552Z,16.30
2018-05-24T05:06:40.018Z,16.30
2018-05-24T05:09:07.510Z,16.30
2018-05-24T05:11:35.731Z,16.60
2018-05-24T05:14:03.195Z,16.60
2018-05-24T05:16:30.644Z,16.70
2018-05-24T05:18:58.111Z,16.80
2018-05-24T05:21:25.572Z,16.90
2018-05-24T05:23:53.109Z,16.80
2018-05-24T05:26:20.567Z,16.90
2018-05-24T05:28:48.033Z,17.00
2018-05-24T05:31:15.492Z,17.00
2018-05-24T05:33:42.942Z,17.10
2018-05-24T05:36:10.396Z,17.20
2018-05-24T05:38:37.867Z,17.20
2018-05-24T05:41:05.330Z,17.40
2018-05-24T05:43:32.794Z,17.50
2018-05-24T05:46:00.265Z,17.50
2018-05-24T05:48:27.724Z,17.60
2018-05-24T05:50:55.185Z,17.70
2018-05-24T05:53:22.657Z,17.70
2018-05-24T05:55:50.170Z,17.80
2018-05-24T05:58:17.629Z,17.80
2018-05-24T06:00:45.089Z,17.80
2018-05-24T06:03:12.553Z,17.90
2018-05-24T06:05:40.012Z,17.90
2018-05-24T06:08:07.480Z,17.90
2018-05-24T06:10:34.946Z,17.90
2018-05-24T06:13:02.411Z,17.90
2018-05-24T06:15:29.873Z,17.90
2018-05-24T06:17:57.327Z,17.90
2018-05-24T06:20:25.071Z,17.90
2018-05-24T06:22:52.568Z,17.70
2018-05-24T06:25:20.029Z,17.70
2018-05-24T06:27:47.520Z,17.70
2018-05-24T06:30:15.010Z,17.80
2018-05-24T06:32:42.473Z,17.80
2018-05-24T06:35:10.697Z,18.10
2018-05-24T06:37:38.921Z,18.20
2018-05-24T06:40:06.393Z,18.20
2018-05-24T06:42:33.840Z,18.30
2018-05-24T06:45:01.308Z,18.10
2018-05-24T06:47:28.769Z,18.10
2018-05-24T06:49:56.232Z,18.10
2018-05-24T06:52:23.692Z,17.90
2018-05-24T06:54:51.160Z,17.80
2018-05-24T06:57:18.616Z,17.80
2018-05-24T06:59:46.247Z,17.80
2018-05-24T07:02:13.730Z,17.90
2018-05-24T07:04:41.199Z,18.10
2018-05-24T07:07:08.655Z,18.30
2018-05-24T07:09:36.129Z,18.40
2018-05-24T07:12:04.363Z,18.60
2018-05-24T07:14:31.826Z,18.60
2018-05-24T07:17:00.045Z,19.00
2018-05-24T07:19:28.289Z,19.20
2018-05-24T07:21:56.573Z,19.20
2018-05-24T07:24:24.040Z,19.20
2018-05-24T07:26:51.505Z,19.40
2018-05-24T07:29:18.973Z,19.40
2018-05-24T07:31:47.265Z,19.50
2018-05-24T07:34:15.510Z,19.40
2018-05-24T07:36:42.971Z,19.40
2018-05-24T07:39:10.446Z,19.50
2018-05-24T07:41:38.679Z,19.60
2018-05-24T07:44:06.146Z,19.60
2018-05-24T07:46:33.674Z,19.50
2018-05-24T07:49:01.104Z,19.50
2018-05-24T07:51:29.331Z,19.60
2018-05-24T07:53:56.802Z,19.60
2018-05-24T07:56:24.295Z,19.70
2018-05-24T07:58:51.753Z,19.70
2018-05-24T08:01:19.985Z,19.70
2018-05-24T08:03:47.456Z,19.70
2018-05-24T08:06:15.168Z,19.60
2018-05-24T08:08:43.557Z,19.80
2018-05-24T08:11:11.023Z,19.80
2018-05-24T08:13:38.501Z,19.90
2018-05-24T08:16:05.973Z,19.90
2018-05-24T08:18:33.447Z,19.90
2018-05-24T08:21:00.910Z,19.70
2018-05-24T08:23:28.402Z,19.70
2018-05-24T08:25:55.860Z,19.70
2018-05-24T08:28:23.333Z,19.70
2018-05-24T08:30:50.797Z,19.70
2018-05-24T08:33:18.257Z,19.60
2018-05-24T08:35:45.733Z,19.50
2018-05-24T08:38:13.219Z,19.50
2018-05-24T08:40:40.777Z,19.40
2018-05-24T08:43:08.938Z,19.10
2018-05-24T08:45:36.415Z,19.10
2018-05-24T08:48:03.905Z,19.00
2018-05-24T08:50:32.127Z,18.50
2018-05-24T08:52:59.589Z,18.50
2018-05-24T08:55:27.056Z,18.50
2018-05-24T08:57:54.528Z,18.40
2018-05-24T09:00:22.790Z,17.90
2018-05-24T09:03:07.552Z,17.90
2018-05-24T09:05:35.017Z,17.80
2018-05-24T09:08:02.542Z,17.70
2018-05-24T09:10:30.041Z,17.80
2018-05-24T09:12:57.554Z,17.90
2018-05-24T09:15:25.018Z,18.00
2018-05-24T09:17:52.509Z,18.00
2018-05-24T09:20:19.988Z,17.90
2018-05-24T09:22:47.451Z,17.90
2018-05-24T09:25:15.687Z,17.90
2018-05-24T09:27:43.160Z,17.90
2018-05-24T09:30:10.690Z,17.90
2018-05-24T09:32:38.088Z,18.10
2018-05-24T09:35:05.564Z,18.20
2018-05-24T09:37:33.788Z,18.30
2018-05-24T09:40:01.257Z,18.30
2018-05-24T09:42:28.725Z,18.30
2018-05-24T09:44:56.191Z,18.20
2018-05-24T09:47:23.652Z,18.20
2018-05-24T09:49:51.209Z,18.30
2018-05-24T09:52:18.672Z,18.40
2018-05-24T09:54:46.200Z,18.40
2018-05-24T09:57:13.666Z,18.40
2018-05-24T09:59:41.136Z,18.40
2018-05-24T10:02:09.447Z,18.30
2018-05-24T10:04:36.978Z,18.20
2018-05-24T10:07:05.152Z,18.40
2018-05-24T10:09:32.616Z,18.40
2018-05-24T10:12:00.083Z,18.40
2018-05-24T10:14:27.565Z,18.30
2018-05-24T10:16:55.796Z,18.20
2018-05-24T10:19:23.264Z,18.20
2018-05-24T10:21:50.723Z,18.30
2018-05-24T10:24:18.192Z,18.30
2018-05-24T10:26:45.658Z,18.30
2018-05-24T10:29:13.123Z,18.30
2018-05-24T10:31:40.604Z,18.40
2018-05-24T10:34:09.748Z,18.60
2018-05-24T10:36:37.249Z,18.60
2018-05-24T10:39:05.509Z,18.80
2018-05-24T10:41:32.968Z,18.80
2018-05-24T10:44:00.430Z,18.90
2018-05-24T10:46:27.897Z,18.90
2018-05-24T10:48:56.182Z,18.90
2018-05-24T10:51:24.424Z,19.00
2018-05-24T10:53:51.884Z,18.90
2018-05-24T10:56:19.360Z,19.10
2018-05-24T10:58:46.827Z,19.20
2018-05-24T11:01:15.059Z,19.40
2018-05-24T11:03:42.539Z,19.40
2018-05-24T11:06:10.009Z,19.50
2018-05-24T11:08:37.466Z,19.60
2018-05-24T11:11:04.943Z,19.80
2018-05-24T11:13:33.177Z,20.00
2018-05-24T11:16:00.651Z,20.00
2018-05-24T11:18:28.130Z,20.30
2018-05-24T11:20:55.593Z,20.40
2018-05-24T11:23:23.819Z,20.60
2018-05-24T11:25:51.292Z,20.50
2018-05-24T11:28:18.743Z,20.70
2018-05-24T11:30:46.212Z,20.80
2018-05-24T11:33:13.681Z,20.70
2018-05-24T11:35:41.152Z,20.70
2018-05-24T11:38:08.633Z,20.60
2018-05-24T11:40:36.865Z,20.80
2018-05-24T11:43:04.365Z,20.80
2018-05-24T11:45:33.054Z,20.90
2018-05-24T11:48:00.661Z,21.10
2018-05-24T11:50:28.152Z,21.30
2018-05-24T11:52:55.627Z,21.40
2018-05-24T11:55:23.884Z,21.50
2018-05-24T11:57:51.340Z,21.40
2018-05-24T12:00:18.812Z,21.50
2018-05-24T12:02:47.043Z,21.60
2018-05-24T12:05:14.520Z,21.60
2018-05-24T12:07:41.992Z,21.70
2018-05-24T12:10:09.507Z,21.90
2018-05-24T12:12:36.968Z,21.90
2018-05-24T12:15:04.507Z,21.80
2018-05-24T12:17:32.196Z,21.90
2018-05-24T12:19:59.725Z,22.10
2018-05-24T12:22:27.942Z,22.00
2018-05-24T12:24:55.486Z,22.00
2018-05-24T12:27:22.938Z,21.90
2018-05-24T12:29:50.417Z,21.90
2018-05-24T12:32:17.908Z,21.90
2018-05-24T12:34:45.381Z,22.00
2018-05-24T12:37:13.609Z,22.30
2018-05-24T12:39:41.081Z,22.20
2018-05-24T12:42:08.539Z,22.20
2018-05-24T12:44:36.011Z,22.20
2018-05-24T12:47:03.480Z,22.40
2018-05-24T12:49:30.939Z,22.60
2018-05-24T12:51:58.412Z,22.90
2018-05-24T12:54:26.669Z,22.80
2018-05-24T12:56:54.136Z,22.80
2018-05-24T12:59:22.380Z,23.20
2018-05-24T13:01:49.858Z,23.20
2018-05-24T13:04:17.439Z,23.20
2018-05-24T13:06:44.812Z,23.20
2018-05-24T13:09:13.049Z,23.10
2018-05-24T13:11:40.512Z,23.20
2018-05-24T13:14:07.971Z,23.20
2018-05-24T13:16:35.441Z,23.20
2018-05-24T13:19:03.086Z,23.30
2018-05-24T13:21:30.592Z,23.30
2018-05-24T13:23:58.815Z,23.10
2018-05-24T13:26:26.373Z,23.10
2018-05-24T13:28:53.829Z,23.20
2018-05-24T13:31:21.340Z,23.20
2018-05-24T13:33:49.577Z,23.20
2018-05-24T13:36:17.049Z,23.20
2018-05-24T13:38:44.503Z,23.10
2018-05-24T13:41:11.977Z,23.00
2018-05-24T13:43:39.446Z,23.00
2018-05-24T13:46:07.681Z,23.00
2018-05-24T13:48:35.141Z,23.00
2018-05-24T13:51:02.639Z,23.10
2018-05-24T13:53:30.919Z,23.50
2018-05-24T13:55:59.228Z,23.60
2018-05-24T13:58:26.688Z,23.60
2018-05-24T14:00:54.148Z,23.60
2018-05-24T14:03:21.626Z,24.00
2018-05-24T14:05:49.096Z,24.10
2018-05-24T14:08:16.568Z,24.20
2018-05-24T14:10:44.060Z,24.40
2018-05-24T14:13:12.288Z,24.30
2018-05-24T14:15:39.761Z,24.30
2018-05-24T14:18:07.220Z,24.50
2018-05-24T14:20:34.693Z,24.70
2018-05-24T14:23:02.152Z,24.70
2018-05-24T14:25:30.386Z,24.60
2018-05-24T14:27:57.857Z,24.60
2018-05-24T14:30:25.326Z,24.70
2018-05-24T14:32:52.780Z,24.60
2018-05-24T14:35:21.023Z,24.50
2018-05-24T14:37:48.490Z,24.50
2018-05-24T14:40:16.012Z,24.50
2018-05-24T14:42:44.253Z,24.20
2018-05-24T14:45:11.737Z,24.20
2018-05-24T14:47:39.217Z,24.20
2018-05-24T14:50:08.420Z,23.90
2018-05-24T14:52:35.895Z,23.90
2018-05-24T14:55:03.357Z,23.80
2018-05-24T14:57:30.839Z,23.70
2018-05-24T14:59:58.295Z,23.70
2018-05-24T15:02:25.762Z,23.60
2018-05-24T15:04:53.224Z,23.70
2018-05-24T15:07:20.699Z,23.70
2018-05-24T15:09:48.158Z,23.60
2018-05-24T15:12:15.719Z,23.50
2018-05-24T15:14:43.956Z,23.00
2018-05-24T15:17:11.458Z,23.00
2018-05-24T15:19:38.916Z,23.00
2018-05-24T15:22:06.381Z,23.10
2018-05-24T15:24:33.833Z,23.10
2018-05-24T15:27:01.374Z,23.20
2018-05-24T15:29:29.680Z,23.20
2018-05-24T15:31:57.956Z,23.10
2018-05-24T15:34:25.461Z,23.10
2018-05-24T15:36:52.924Z,23.10
2018-05-24T15:39:20.396Z,23.00
2018-05-24T15:41:47.855Z,22.80
2018-05-24T15:44:15.316Z,22.90
2018-05-24T15:46:42.783Z,23.00
2018-05-24T15:49:10.249Z,23.00
2018-05-24T15:51:37.717Z,23.00
2018-05-24T15:54:05.172Z,23.20
2018-05-24T15:56:32.716Z,23.20
2018-05-24T15:59:00.214Z,23.00
2018-05-24T16:01:28.525Z,22.90
2018-05-24T16:03:55.980Z,22.90
2018-05-24T16:06:23.442Z,23.00
2018-05-24T16:08:50.908Z,23.00
2018-05-24T16:11:18.385Z,23.10
2018-05-24T16:13:45.852Z,23.10
2018-05-24T16:16:13.317Z,23.10
2018-05-24T16:18:40.772Z,23.10
2018-05-24T16:21:08.245Z,23.10
2018-05-24T16:23:35.683Z,23.10
2018-05-24T16:26:03.151Z,23.10
2018-05-24T16:28:30.637Z,23.10
2018-05-24T16:30:58.088Z,23.10
2018-05-24T16:33:26.311Z,23.10
2018-05-24T16:35:53.781Z,23.10
2018-05-24T16:38:21.244Z,23.00
2018-05-24T16:40:48.709Z,23.00
2018-05-24T16:43:16.176Z,23.00
2018-05-24T16:45:43.651Z,22.90
2018-05-24T16:48:11.121Z,22.90
2018-05-24T16:50:39.353Z,22.90
2018-05-24T16:53:06.817Z,22.80
2018-05-24T16:55:34.276Z,22.80
2018-05-24T16:58:01.748Z,22.80
2018-05-24T17:00:29.342Z,22.70
2018-05-24T17:02:57.645Z,22.70
2018-05-24T17:05:25.084Z,22.60
2018-05-24T17:07:52.556Z,22.60
2018-05-24T17:10:20.016Z,22.60
2018-05-24T17:12:47.484Z,22.60
2018-05-24T17:15:15.036Z,22.60
2018-05-24T17:17:42.499Z,22.50
2018-05-24T17:20:09.964Z,22.50
2018-05-24T17:22:37.421Z,22.50
2018-05-24T17:25:04.879Z,22.40
2018-05-24T17:27:32.352Z,22.50
2018-05-24T17:29:59.805Z,22.50
2018-05-24T17:32:27.281Z,22.40
2018-05-24T17:34:54.756Z,22.50
2018-05-24T17:37:22.220Z,22.50
2018-05-24T17:39:49.702Z,22.50
2018-05-24T17:42:17.812Z,22.50
2018-05-24T17:44:45.265Z,22.40
2018-05-24T17:47:12.756Z,22.40
2018-05-24T17:49:40.220Z,22.30
2018-05-24T17:52:07.701Z,22.30
2018-05-24T17:54:35.916Z,22.30
2018-05-24T17:57:03.392Z,22.30
2018-05-24T17:59:30.867Z,22.30
2018-05-24T18:01:58.368Z,22.20
2018-05-24T18:04:25.838Z,22.00
2018-05-24T18:06:53.317Z,22.00
2018-05-24T18:09:20.820Z,21.80
2018-05-24T18:11:48.290Z,21.60
2018-05-24T18:14:16.520Z,21.40
2018-05-24T18:16:43.984Z,21.40
2018-05-24T18:19:11.453Z,21.30
2018-05-24T18:21:38.931Z,21.30
2018-05-24T18:24:06.389Z,21.40
2018-05-24T18:26:34.624Z,21.40
2018-05-24T18:29:02.084Z,21.30
2018-05-24T18:31:29.556Z,21.40
2018-05-24T18:33:57.024Z,21.40
2018-05-24T18:36:24.495Z,21.40
2018-05-24T18:38:51.981Z,21.40
2018-05-24T18:41:19.432Z,21.40
2018-05-24T18:43:47.664Z,21.40
2018-05-24T18:46:15.132Z,21.40
2018-05-24T18:48:42.608Z,21.40
2018-05-24T18:51:10.104Z,21.40
2018-05-24T18:53:37.576Z,21.30
2018-05-24T18:56:05.044Z,21.30
2018-05-24T18:58:32.515Z,21.30
2018-05-24T19:00:59.982Z,21.20
2018-05-24T19:03:27.497Z,21.20
2018-05-24T19:05:54.974Z,21.10
2018-05-24T19:08:22.463Z,21.00
2018-05-24T19:10:49.932Z,21.00
2018-05-24T19:13:17.410Z,20.90
2018-05-24T19:15:45.639Z,20.60
2018-05-24T19:18:13.119Z,20.60
2018-05-24T19:20:40.577Z,20.60
2018-05-24T19:23:08.092Z,20.40
2018-05-24T19:25:36.302Z,20.20
2018-05-24T19:28:03.772Z,20.20
2018-05-24T19:30:31.287Z,20.10
2018-05-24T19:32:58.749Z,20.00
2018-05-24T19:35:26.218Z,19.90
2018-05-24T19:37:53.697Z,19.80
2018-05-24T19:40:21.992Z,19.70
2018-05-24T19:42:49.454Z,19.70
2018-05-24T19:45:17.688Z,19.80
2018-05-24T19:47:45.172Z,19.80
2018-05-24T19:50:12.629Z,19.80
2018-05-24T19:52:40.102Z,19.80
2018-05-24T19:55:07.581Z,19.80
2018-05-24T19:57:35.820Z,19.90
2018-05-24T20:00:03.287Z,19.90
2018-05-24T20:02:31.576Z,19.90
2018-05-24T20:04:59.110Z,20.00
2018-05-24T20:07:26.568Z,19.90
2018-05-24T20:09:54.025Z,19.90
2018-05-24T20:12:21.606Z,19.90
2018-05-24T20:14:49.075Z,19.90
2018-05-24T20:17:16.547Z,19.80
2018-05-24T20:19:44.773Z,19.60
2018-05-24T20:22:12.315Z,19.60
2018-05-24T20:24:39.773Z,19.50
2018-05-24T20:27:07.257Z,19.40
2018-05-24T20:29:34.726Z,19.30
2018-05-24T20:32:02.220Z,19.40
2018-05-24T20:34:30.490Z,19.50
2018-05-24T20:36:58.779Z,19.50
2018-05-24T20:39:26.262Z,19.50
2018-05-24T20:41:53.716Z,19.50
2018-05-24T20:44:21.195Z,19.60
2018-05-24T20:46:48.656Z,19.60
2018-05-24T20:49:16.123Z,19.50
2018-05-24T20:51:43.591Z,19.60
2018-05-24T20:54:11.069Z,19.60
2018-05-24T20:56:38.524Z,19.60
2018-05-24T20:59:05.996Z,19.50
2018-05-24T21:01:34.223Z,19.40
2018-05-24T21:04:01.793Z,19.40
2018-05-24T21:06:30.044Z,19.20
2018-05-24T21:08:57.528Z,19.20
2018-05-24T21:11:24.992Z,19.10
2018-05-24T21:13:52.519Z,19.00
2018-05-24T21:16:20.093Z,19.00
2018-05-24T21:18:47.590Z,19.00
2018-05-24T21:21:15.879Z,19.10
2018-05-24T21:23:43.405Z,19.20
2018-05-24T21:26:10.885Z,19.30
2018-05-24T21:28:38.359Z,19.30
2018-05-24T21:31:06.588Z,19.20
2018-05-24T21:33:34.065Z,19.20
2018-05-24T21:36:01.532Z,19.20
2018-05-24T21:38:29.042Z,19.10
2018-05-24T21:40:56.498Z,19.20
2018-05-24T21:43:23.969Z,19.20
2018-05-24T21:45:51.437Z,19.30
2018-05-24T21:48:21.953Z,19.20
2018-05-24T21:50:49.421Z,19.20
2018-05-24T21:53:16.889Z,19.10
2018-05-24T21:55:44.353Z,19.10
2018-05-24T21:58:11.829Z,19.10
2018-05-24T22:00:55.868Z,19.10
2018-05-24T22:03:23.746Z,19.10
2018-05-24T22:05:51.369Z,19.10
2018-05-24T22:08:18.842Z,19.10
2018-05-24T22:10:46.312Z,19.10
2018-05-24T22:13:13.792Z,19.00
2018-05-24T22:15:41.256Z,19.00
2018-05-24T22:18:08.734Z,19.00
2018-05-24T22:20:36.960Z,19.10
2018-05-24T22:23:04.451Z,19.10
2018-05-24T22:25:31.912Z,19.10
2018-05-24T22:27:59.384Z,19.10
2018-05-24T22:30:27.637Z,19.00
2018-05-24T22:32:55.151Z,19.00
2018-05-24T22:35:22.712Z,18.90
2018-05-24T22:37:50.191Z,18.90
2018-05-24T22:40:17.746Z,18.80
2018-05-24T22:42:45.925Z,18.80
2018-05-24T22:45:13.391Z,18.70
2018-05-24T22:47:40.871Z,18.80
2018-05-24T22:50:08.345Z,18.70
2018-05-24T22:52:35.801Z,18.60
2018-05-24T22:55:03.267Z,18.60
2018-05-24T22:57:31.529Z,18.40
2018-05-24T22:59:58.993Z,18.40
2018-05-24T23:02:26.549Z,18.30
2018-05-24T23:04:54.040Z,18.10
2018-05-24T23:07:22.262Z,17.90
2018-05-24T23:09:49.739Z,17.90
2018-05-24T23:12:25.431Z,17.90
2018-05-24T23:14:53.469Z,17.80
2018-05-24T23:17:20.920Z,17.80
2018-05-24T23:19:48.393Z,17.80
2018-05-24T23:22:27.742Z,17.70
2018-05-24T23:24:55.978Z,17.60
2018-05-24T23:27:23.442Z,17.50
2018-05-24T23:29:50.926Z,17.50
2018-05-24T23:32:19.153Z,17.50
2018-05-24T23:34:46.620Z,17.50
2018-05-24T23:37:14.087Z,17.40
2018-05-24T23:39:41.556Z,17.40
2018-05-24T23:42:09.069Z,17.40
2018-05-24T23:44:36.544Z,17.40
2018-05-24T23:47:04.013Z,17.30
2018-05-24T23:49:31.472Z,17.20
2018-05-24T23:51:58.927Z,17.20
2018-05-24T23:54:26.394Z,17.20
2018-05-24T23:56:53.859Z,17.30
2018-05-24T23:59:21.380Z,17.20
